Date,TemperatureHighF,TemperatureAvgF,TemperatureLowF,DewpointHighF,DewpointAvgF,DewpointLowF,HumidityHigh,HumidityAvg,HumidityLow,PressureMaxIn,PressureMinIn,WindSpeedMaxMPH,WindSpeedAvgMPH,GustSpeedMaxMPH,PrecipitationSumIn
2014-1-1,52,34,24,36,28,22,93,81,52,30.41,29.51,23,0,24,0.00
2014-1-2,53,36,25,37,30,22,92,78,53,30.33,30.02,9,0,9,0.00
2014-1-3,48,39,22,35,28,16,86,67,34,30.25,29.99,26,3,26,0.00
2014-1-4,43,25,14,25,16,10,94,70,26,30.53,30.24,9,0,9,0.00
2014-1-5,50,25,15,20,14,9,81,66,28,30.59,30.47,9,0,9,0.00
2014-1-6,46,33,18,24,17,12,82,56,31,30.49,30.19,8,0,8,0.00
2014-1-7,46,38,32,37,29,20,94,72,55,30.19,30.00,12,2,12,0.02
2014-1-8,50,38,31,42,34,29,100,85,59,30.09,29.82,32,4,32,0.11
2014-1-9,45,36,30,35,31,27,92,83,65,30.09,29.92,39,4,39,0.00
2014-1-10,48,44,40,37,33,29,76,65,56,30.11,29.86,42,6,42,0.01
2014-1-11,53,42,32,39,34,27,93,73,49,29.96,29.61,38,10,44,0.04
2014-1-12,46,39,31,37,32,25,84,74,67,30.41,29.96,26,3,26,0.00
2014-1-13,45,35,27,36,30,25,92,82,61,30.67,30.40,12,2,15,0.00
2014-1-14,52,34,25,34,27,22,93,78,48,30.72,30.61,8,0,10,0.00
2014-1-15,53,33,23,34,24,19,86,70,44,30.63,30.48,12,0,12,0.00
2014-1-16,54,34,21,30,22,16,82,65,33,30.58,30.41,5,0,5,0.00
2014-1-17,60,30,21,30,22,16,86,74,30,30.42,30.25,4,0,6,0.00
2014-1-18,57,34,19,32,25,16,90,72,38,30.36,30.20,5,0,5,0.00
2014-1-19,59,37,23,31,25,18,89,65,29,30.31,30.13,9,0,9,0.00
2014-1-20,29,26,24,26,24,21,95,93,73,30.50,30.31,5,0,7,0.00
2014-1-21,47,28,18,38,24,16,95,89,61,30.49,30.35,7,0,7,0.00
2014-1-22,48,28,16,36,24,14,94,86,61,30.43,30.31,15,1,15,0.00
2014-1-23,28,26,24,25,24,23,95,92,88,30.64,30.43,10,2,10,0.00
2014-1-24,37,27,20,27,23,17,93,84,63,30.68,30.52,8,1,11,0.00
2014-1-25,52,29,15,34,22,13,100,78,42,30.57,30.34,5,0,5,0.00
2014-1-26,59,33,22,33,24,18,93,73,29,30.35,30.11,12,0,12,0.00
2014-1-27,28,25,23,24,22,21,94,92,86,30.42,30.22,8,1,8,0.00
2014-1-28,40,32,26,34,28,23,95,87,73,30.42,30.05,7,0,7,0.25
2014-1-29,50,41,34,42,35,28,97,81,52,30.05,29.77,41,5,41,0.09
2014-1-30,42,35,27,28,26,23,86,69,48,29.96,29.85,12,2,15,0.00
2014-1-31,40,31,23,29,25,21,91,78,56,30.14,29.96,15,1,17,0.00
2014-2-1,48,30,21,34,22,18,91,75,44,30.19,29.51,23,0,24,0.00
2014-2-2,37,29,20,29,24,16,92,83,71,30.04,29.89,12,1,12,0.00
2014-2-3,34,28,25,27,24,20,95,84,62,30.10,29.93,15,3,21,0.00
2014-2-4,28,21,14,23,18,11,90,87,77,30.35,30.10,14,3,14,0.00
2014-2-5,14,9,5,11,5,0,92,82,72,30.46,30.35,13,2,13,0.00
2014-2-6,12,7,0,5,2,-3,93,81,65,30.39,29.90,12,1,12,0.00
2014-2-7,32,13,1,30,10,-2,93,88,84,30.03,29.79,9,1,9,0.10
2014-2-8,14,12,9,12,9,6,99,89,88,30.16,29.96,10,0,10,0.00
2014-2-9,30,17,8,28,14,5,93,90,87,30.25,30.12,7,0,7,0.29
2014-2-10,44,27,14,40,25,11,95,91,76,30.34,30.22,13,0,13,0.08
2014-2-11,45,37,27,36,32,26,95,83,67,30.24,29.88,15,2,15,0.03
2014-2-12,45,42,38,39,37,35,91,85,75,29.94,29.82,22,2,22,0.20
2014-2-13,47,42,37,38,33,29,90,71,53,30.11,29.87,19,2,19,0.00
2014-2-14,43,40,34,41,37,32,95,90,76,29.99,29.79,19,2,28,0.53
2014-2-15,58,42,33,46,37,28,95,85,50,29.94,29.47,38,4,38,0.21
2014-2-16,46,39,32,30,27,23,81,63,40,30.02,29.75,33,6,33,0.00
2014-2-17,49,41,33,35,31,25,93,68,53,30.01,29.81,40,12,40,0.03
2014-2-18,51,37,29,39,32,24,100,82,55,30.03,29.74,45,7,45,0.04
2014-2-19,40,33,28,29,24,21,87,70,49,30.23,29.96,30,4,32,0.00
2014-2-20,45,38,30,33,30,25,88,72,59,30.24,30.16,31,2,31,0.00
2014-2-21,49,36,23,35,27,21,93,74,44,30.23,30.12,14,1,19,0.00
2014-2-22,52,37,23,34,28,20,90,72,46,30.15,30.01,16,1,16,0.00
2014-2-23,53,39,26,37,31,23,92,74,43,30.02,29.90,8,1,8,0.00
2014-2-24,55,39,32,47,36,30,95,88,70,30.12,29.97,15,2,15,0.00
2014-2-25,34,31,27,31,29,26,96,93,89,30.21,30.12,11,2,11,0.00
2014-2-26,32,29,26,31,27,25,95,92,88,30.17,29.81,9,1,10,0.00
2014-2-27,37,32,28,35,30,27,95,94,91,29.81,29.74,12,1,12,0.22
2014-2-28,52,36,25,41,33,23,96,88,56,29.77,29.47,16,3,25,0.16
2014-3-1,44,32,28,34,30,27,96,93,88,29.93,29.51,13,1,15,0.16
2014-3-2,51,39,30,45,36,29,97,89,72,29.88,29.73,24,1,24,0.04
2014-3-3,55,44,34,42,37,32,92,77,53,29.95,29.78,35,4,35,0.01
2014-3-4,58,41,27,43,34,26,95,79,44,30.05,29.91,21,1,21,0.01
2014-3-5,59,52,42,49,42,37,84,69,59,29.92,29.51,32,8,32,0.03
2014-3-6,51,45,34,37,34,30,87,66,53,30.10,29.62,30,8,46,0.00
2014-3-7,57,42,27,37,31,24,93,69,37,30.28,30.10,9,0,9,0.00
2014-3-8,60,48,30,46,34,25,85,62,34,30.19,29.93,27,6,27,0.00
2014-3-9,60,53,44,48,45,40,94,77,57,29.93,29.84,30,6,30,0.24
2014-3-10,47,41,34,40,34,30,92,76,56,30.37,29.88,27,6,34,0.12
2014-3-11,53,38,24,32,27,21,91,70,31,30.54,30.37,13,1,13,0.00
2014-3-12,62,42,24,32,26,21,88,59,23,30.45,30.11,16,4,21,0.00
2014-3-13,62,43,26,33,28,22,87,60,26,30.13,29.98,12,2,18,0.00
2014-3-14,56,44,32,42,33,27,91,68,38,30.32,30.03,28,4,28,0.00
2014-3-15,67,45,26,34,28,22,89,58,20,30.38,30.24,16,2,16,0.00
2014-3-16,69,48,29,37,28,17,89,56,15,30.29,29.80,41,5,41,0.00
2014-3-17,43,36,29,36,25,18,88,66,38,30.28,29.83,28,9,33,0.00
2014-3-18,50,37,22,28,24,19,88,63,38,30.32,30.15,20,2,20,0.00
2014-3-19,56,40,21,31,26,16,84,60,34,30.17,30.02,33,7,33,0.00
2014-3-20,44,37,29,30,21,14,77,54,30,30.26,30.11,18,4,25,0.00
2014-3-21,46,34,18,26,20,14,86,60,33,30.27,30.14,21,3,22,0.00
2014-3-22,55,36,17,24,18,12,86,54,19,30.33,30.15,12,1,12,0.00
2014-3-23,59,40,20,28,21,14,81,51,17,30.28,30.16,15,1,15,0.00
2014-3-24,68,45,24,36,27,19,84,55,20,30.23,29.88,17,2,17,0.00
2014-3-25,57,42,32,38,31,27,89,69,33,29.89,29.59,37,4,37,0.00
2014-3-26,50,39,32,37,34,29,93,80,49,29.65,29.51,27,3,27,0.00
2014-3-27,50,42,36,34,32,26,87,66,41,29.92,29.62,37,7,37,0.00
2014-3-28,55,44,38,44,38,33,90,79,58,29.92,29.73,39,5,39,0.10
2014-3-29,53,43,33,40,33,28,92,70,39,29.86,29.75,29,7,37,0.01
2014-3-30,47,37,26,34,29,23,92,76,43,29.98,29.85,17,3,17,0.00
2014-3-31,52,39,25,35,29,23,93,69,34,29.97,29.65,22,6,28,0.00
2014-4-1,39,35,32,35,32,29,100,89,79,29.87,29.65,13,2,13,0.10
2014-4-2,53,39,26,37,31,25,95,74,41,30.03,29.87,13,1,13,0.00
2014-4-3,53,40,28,38,32,25,91,75,49,30.03,29.88,28,4,28,0.00
2014-4-4,54,44,38,36,33,28,88,66,39,29.95,29.83,24,3,24,0.00
2014-4-5,54,44,36,42,37,32,91,78,50,30.08,29.94,22,2,22,0.02
2014-4-6,61,50,40,44,38,34,88,66,39,30.25,30.08,23,5,23,0.01
2014-4-7,73,53,31,42,37,27,91,60,26,30.28,30.03,17,2,17,0.00
2014-4-8,72,54,36,46,37,29,92,58,25,30.10,29.93,23,4,23,0.00
2014-4-9,60,48,35,42,34,11,90,62,25,30.08,29.99,23,5,23,0.00
2014-4-10,63,47,26,32,26,13,74,47,26,30.14,29.99,17,2,24,0.00
2014-4-11,67,49,30,37,30,23,85,53,23,30.04,29.86,22,3,22,0.00
2014-4-12,58,47,28,34,27,17,79,48,24,30.06,29.87,26,5,26,0.00
2014-4-13,62,45,26,33,27,22,87,54,27,30.26,30.06,18,1,18,0.00
2014-4-14,69,49,24,36,28,19,83,49,21,30.22,29.97,21,3,21,0.00
2014-4-15,53,47,37,37,31,28,75,55,38,30.07,29.99,20,5,20,0.00
2014-4-16,60,48,32,40,33,25,83,59,39,30.07,29.90,14,1,14,0.00
2014-4-17,50,46,41,45,40,35,87,77,64,29.92,29.77,16,1,16,0.05
2014-4-18,59,45,30,35,28,17,85,55,26,30.06,29.88,12,1,12,0.00
2014-4-19,64,45,29,37,31,22,84,62,23,30.19,29.82,29,5,30,0.00
2014-4-20,66,47,28,38,31,25,91,58,28,30.27,30.06,13,1,13,0.00
2014-4-21,63,47,35,45,37,30,89,70,36,30.07,29.70,25,3,25,0.02
2014-4-22,48,42,35,38,32,23,92,69,39,29.94,29.73,30,6,30,0.20
2014-4-23,53,45,36,42,34,29,84,65,49,29.96,29.77,27,6,27,0.00
2014-4-24,56,48,39,41,37,31,85,65,39,29.83,29.75,35,9,35,0.00
2014-4-25,49,40,31,35,32,28,93,76,47,29.81,29.71,27,3,27,0.05
2014-4-26,51,40,26,35,28,23,93,65,37,29.84,29.74,28,3,28,0.01
2014-4-27,47,41,32,36,31,26,87,70,47,30.12,29.73,29,7,29,0.01
2014-4-28,59,44,26,32,27,17,89,56,21,30.35,30.13,15,1,15,0.00
2014-4-29,68,51,30,42,33,25,85,55,31,30.50,30.33,18,2,18,0.00
2014-4-30,77,57,34,42,35,26,89,51,18,30.42,30.11,12,2,20,0.00
2014-5-1,83,59,35,44,37,28,83,50,14,30.18,29.92,18,2,18,0.00
2014-5-2,76,59,40,50,43,36,87,58,30,30.01,29.75,21,3,21,0.00
2014-5-3,61,51,40,44,39,35,90,64,40,29.82,29.68,24,4,24,0.00
2014-5-4,56,49,42,46,38,34,83,67,54,29.87,29.74,21,4,27,0.06
2014-5-5,55,45,36,40,35,31,93,71,43,29.97,29.87,29,4,29,0.01
2014-5-6,55,43,30,39,33,28,93,70,46,30.00,29.89,32,4,32,0.00
2014-5-7,63,48,31,38,33,28,89,61,28,29.98,29.81,13,1,13,0.00
2014-5-8,60,49,38,47,40,33,91,74,56,29.85,29.65,23,3,23,0.06
2014-5-9,53,46,38,41,36,33,85,69,48,30.00,29.76,36,8,36,0.05
2014-5-10,50,42,35,38,34,31,93,76,52,30.21,29.99,27,5,27,0.06
2014-5-11,61,46,28,42,34,26,92,65,37,30.29,30.17,16,2,23,0.00
2014-5-12,66,51,31,42,35,28,90,58,31,30.34,30.20,15,2,15,0.00
2014-5-13,76,56,34,43,36,29,92,52,19,30.36,30.19,17,2,17,0.00
2014-5-14,82,62,38,52,40,32,82,50,22,30.29,30.03,13,1,13,0.00
2014-5-15,84,66,44,55,46,39,82,53,22,30.08,29.85,22,2,22,0.00
2014-5-16,72,60,48,48,40,27,83,51,21,29.94,29.85,26,3,26,0.00
2014-5-17,66,54,36,44,39,33,89,60,35,29.96,29.75,24,3,24,0.00
2014-5-18,59,50,44,45,41,37,93,71,50,29.87,29.75,30,4,30,0.30
2014-5-19,62,50,38,45,40,35,94,69,43,29.94,29.84,21,2,21,0.00
2014-5-20,68,54,37,47,40,34,91,63,32,30.01,29.91,24,4,24,0.00
2014-5-21,72,58,38,49,42,34,91,57,25,30.01,29.89,25,4,25,0.00
2014-5-22,80,62,41,50,43,36,88,54,21,30.01,29.85,9,0,11,0.00
2014-5-23,71,58,49,54,48,43,86,71,46,30.01,29.88,25,3,25,0.00
2014-5-24,72,57,39,48,42,32,95,64,25,30.06,29.93,17,2,23,0.00
2014-5-25,74,58,41,48,42,35,86,57,32,30.00,29.83,22,3,22,0.00
2014-5-26,65,57,49,46,42,36,78,59,38,30.01,29.91,21,3,21,0.00
2014-5-27,62,51,38,44,38,33,87,62,40,30.02,29.92,25,4,25,0.00
2014-5-28,57,46,36,38,35,30,88,67,41,30.18,30.00,29,4,29,0.00
2014-5-29,70,50,30,40,33,27,92,57,22,30.21,29.99,18,1,18,0.00
2014-5-30,76,58,33,47,38,28,86,52,20,30.02,29.75,31,3,31,0.00
2014-5-31,72,59,43,47,42,37,87,58,29,29.93,29.84,18,3,23,0.00
2014-6-1,77,61,42,50,43,35,87,55,27,29.96,29.76,21,2,21,0.00
2014-6-2,78,62,41,51,42,36,83,50,27,29.81,29.65,24,2,24,0.00
2014-6-3,74,60,42,47,38,28,86,50,24,29.93,29.74,28,4,28,0.00
2014-6-4,78,60,35,44,33,22,82,42,13,30.00,29.87,27,3,27,0.00
2014-6-5,75,61,40,42,36,31,76,42,24,29.99,29.83,28,4,28,0.00
2014-6-6,75,61,40,43,36,31,72,41,21,29.97,29.87,25,4,25,0.00
2014-6-7,74,62,43,48,40,33,73,47,32,30.01,29.91,25,5,25,0.00
2014-6-8,79,63,44,48,43,34,92,52,20,30.08,29.89,28,2,28,0.00
2014-6-9,76,61,44,48,40,29,82,49,20,29.97,29.82,27,6,27,0.00
2014-6-10,72,58,38,42,36,31,78,46,28,29.94,29.86,30,7,30,0.00
2014-6-11,79,61,38,42,37,22,86,47,14,29.95,29.68,18,2,18,0.00
2014-6-12,70,57,43,46,40,37,83,56,35,29.82,29.64,37,6,37,0.00
2014-6-13,61,51,47,44,40,38,74,65,52,30.04,29.82,31,6,31,0.00
2014-6-14,63,50,37,40,37,32,88,63,35,30.04,29.90,25,5,25,0.00
2014-6-15,61,52,41,42,40,37,87,65,47,29.90,29.74,21,3,21,0.00
2014-6-16,55,47,39,40,36,31,85,66,45,29.94,29.76,28,4,28,0.01
2014-6-17,59,46,32,43,38,30,94,74,51,30.07,29.93,25,3,25,0.00
2014-6-18,73,55,34,46,41,32,93,62,29,30.07,29.87,21,2,21,0.00
2014-6-19,80,63,40,50,41,34,82,48,24,29.97,29.82,23,2,23,0.00
2014-6-20,71,60,50,48,45,39,83,60,34,29.96,29.87,25,3,25,0.00
2014-6-21,72,58,39,44,38,32,85,51,25,29.99,29.85,20,3,20,0.00
2014-6-22,80,61,40,46,38,32,75,45,21,30.00,29.83,17,1,17,0.00
2014-6-23,82,65,44,53,44,35,77,49,22,29.92,29.77,24,3,24,0.00
2014-6-24,72,63,50,52,49,46,92,63,42,29.95,29.87,17,3,25,0.00
2014-6-25,68,57,47,56,50,43,95,78,52,29.90,29.72,8,0,8,0.52
2014-6-26,68,59,52,54,51,49,96,78,53,29.77,29.72,14,1,18,0.02
2014-6-27,69,60,53,55,51,46,92,73,47,29.83,29.72,26,4,26,0.05
2014-6-28,70,59,50,51,46,43,86,64,40,29.95,29.83,20,2,20,0.00
2014-6-29,71,58,44,49,44,40,89,62,34,30.07,29.95,21,2,21,0.00
2014-6-30,81,64,41,52,45,37,92,55,22,30.12,29.89,15,1,18,0.00
2014-7-1,91,71,48,60,49,42,85,51,26,29.92,29.62,18,1,18,0.00
2014-7-2,87,73,63,60,54,47,72,52,26,29.78,29.64,27,3,28,0.00
2014-7-3,82,68,52,57,51,42,92,58,32,29.86,29.76,18,2,18,0.00
2014-7-4,83,67,50,54,46,38,84,49,23,29.88,29.76,25,2,25,0.00
2014-7-5,86,70,50,54,45,36,72,43,20,29.98,29.86,15,1,15,0.00
2014-7-6,86,71,50,58,49,44,84,49,25,30.01,29.87,24,3,24,0.00
2014-7-7,89,73,52,61,52,46,83,51,29,29.98,29.77,14,1,14,0.00
2014-7-8,91,76,55,66,55,48,83,51,30,29.86,29.71,19,1,19,0.00
2014-7-9,89,76,60,62,51,33,81,45,22,29.78,29.64,22,2,22,0.00
2014-7-10,91,72,48,54,42,32,71,37,16,29.78,29.64,16,1,16,0.00
2014-7-11,87,70,50,57,46,35,72,44,19,29.90,29.74,15,0,15,0.00
2014-7-12,95,74,51,58,48,43,79,44,20,29.99,29.84,11,1,15,0.00
2014-7-13,89,72,56,59,51,41,74,49,29,29.94,29.77,42,3,42,0.00
2014-7-14,90,74,52,60,53,48,88,52,27,29.94,29.83,24,3,24,0.00
2014-7-15,92,75,54,58,52,46,79,48,25,29.96,29.78,20,2,21,0.00
2014-7-16,96,77,54,59,50,41,75,42,18,29.88,29.69,13,2,19,0.00
2014-7-17,88,71,51,53,44,35,68,40,23,29.84,29.73,24,3,24,0.00
2014-7-18,86,66,44,50,41,30,75,45,14,29.93,29.83,29,3,29,0.00
2014-7-19,84,70,51,55,50,46,86,52,29,29.95,29.81,23,3,23,0.00
2014-7-20,82,67,49,57,49,34,87,56,31,29.82,29.67,24,4,29,0.00
2014-7-21,79,65,47,52,44,32,81,49,23,29.90,29.75,16,1,16,0.00
2014-7-22,79,68,58,61,56,47,89,66,40,29.92,29.81,33,2,33,0.01
2014-7-23,65,56,48,58,50,41,95,82,60,30.08,29.86,26,3,26,0.16
2014-7-24,70,55,39,47,43,36,91,66,40,30.20,30.06,24,2,24,0.00
2014-7-25,79,62,40,51,43,38,93,57,24,30.07,29.90,18,1,18,0.00
2014-7-26,86,68,47,52,44,40,82,46,22,30.02,29.89,19,2,19,0.00
2014-7-27,84,70,49,56,48,41,78,48,31,30.00,29.89,19,0,19,0.00
2014-7-28,93,73,52,57,49,43,79,47,20,29.99,29.84,21,1,21,0.00
2014-7-29,94,73,55,58,51,43,78,49,20,29.96,29.82,26,1,26,0.00
2014-7-30,93,75,55,62,51,44,76,48,19,29.95,29.83,13,0,13,0.00
2014-7-31,94,76,59,59,51,42,70,44,20,29.91,29.75,28,1,28,0.00
2014-8-1,94,78,60,62,54,48,77,47,23,29.89,29.71,17,1,17,0.00
2014-8-2,89,73,57,62,54,41,76,52,23,29.82,29.72,28,1,28,0.00
2014-8-3,86,71,55,63,55,49,89,59,31,29.90,29.74,20,2,21,0.00
2014-8-4,89,74,56,64,54,48,85,53,28,29.84,29.69,18,3,19,0.00
2014-8-5,86,73,58,58,48,34,80,44,20,29.89,29.77,25,4,25,0.00
2014-8-6,83,66,44,54,44,31,71,46,29,30.00,29.85,20,2,20,0.00
2014-8-7,84,68,48,52,45,35,80,48,20,29.97,29.79,21,2,22,0.00
2014-8-8,80,66,49,51,42,37,74,44,24,29.94,29.84,21,3,21,0.00
2014-8-9,84,66,46,53,44,37,80,49,25,30.00,29.87,24,2,24,0.00
2014-8-10,92,73,50,58,48,40,77,46,22,29.99,29.77,51,3,51,0.00
2014-8-11,91,73,58,62,56,50,83,58,25,29.92,29.70,35,2,35,0.00
2014-8-12,79,64,53,62,56,50,91,75,43,29.85,29.70,20,1,40,0.00
2014-8-13,75,60,50,58,52,46,94,77,48,29.92,29.78,34,1,34,0.00
2014-8-14,71,59,49,57,52,47,93,81,47,29.93,29.86,4,0,7,0.00
2014-8-15,78,64,52,58,53,50,93,70,42,29.96,29.88,12,0,12,0.00
2014-8-16,84,68,48,58,52,46,92,61,30,30.00,29.86,14,1,14,0.00
2014-8-17,87,70,50,59,52,44,91,57,24,29.97,29.81,23,2,23,0.00
2014-8-18,87,72,53,60,52,47,86,55,29,29.86,29.65,20,2,20,0.00
2014-8-19,82,68,54,58,51,46,81,57,33,29.71,29.61,24,4,28,0.00
2014-8-20,76,63,50,54,48,40,91,61,33,29.85,29.70,27,3,27,0.00
2014-8-21,77,60,39,48,40,28,87,54,18,29.95,29.82,16,1,19,0.00
2014-8-22,73,60,44,48,44,39,88,58,32,29.99,29.86,20,3,20,0.00
2014-8-23,74,60,44,52,46,41,90,61,36,30.06,29.93,20,2,20,0.00
2014-8-24,78,61,43,50,44,33,87,57,21,29.95,29.74,38,1,38,0.00
2014-8-25,77,61,43,51,46,40,91,61,33,29.94,29.86,22,1,22,0.00
2014-8-26,83,64,43,49,44,38,82,51,26,30.02,29.88,15,1,15,0.00
2014-8-27,91,70,48,56,48,40,76,50,25,30.00,29.83,18,1,18,0.00
2014-8-28,84,68,50,56,51,46,89,57,30,29.95,29.82,18,1,18,0.00
2014-8-29,81,64,45,53,47,41,87,58,26,29.88,29.74,23,2,23,0.00
2014-8-30,68,58,51,56,49,45,86,71,52,29.90,29.79,25,2,25,0.11
2014-8-31,70,57,43,49,45,41,94,68,39,30.00,29.90,16,1,16,0.00
2014-9-1,79,60,40,49,43,37,91,59,28,30.05,29.85,7,0,10,0.00
2014-9-2,78,62,42,53,46,39,90,60,31,29.86,29.69,25,2,27,0.00
2014-9-3,68,54,36,43,38,32,88,57,28,29.98,29.82,19,2,19,0.00
2014-9-4,77,56,35,46,40,31,90,58,28,30.07,29.90,18,1,19,0.00
2014-9-5,79,59,38,48,40,33,87,55,26,30.10,29.92,16,2,17,0.00
2014-9-6,85,62,39,49,39,32,80,47,18,30.04,29.77,18,1,19,0.00
2014-9-7,84,63,41,48,39,31,79,46,19,29.85,29.70,14,1,14,0.00
2014-9-8,82,62,42,48,38,30,72,45,17,29.83,29.68,24,2,24,0.00
2014-9-9,69,57,42,48,43,39,91,64,36,30.04,29.83,21,3,21,0.00
2014-9-10,72,57,38,48,41,33,91,58,34,30.11,29.98,21,2,21,0.00
2014-9-11,67,53,37,36,32,27,72,46,27,30.24,30.04,18,2,18,0.00
2014-9-12,78,54,32,44,32,25,79,47,20,30.13,29.85,19,1,19,0.00
2014-9-13,78,56,35,43,33,27,76,45,22,29.99,29.78,16,1,18,0.00
2014-9-14,82,60,36,49,36,28,72,45,24,29.93,29.78,15,1,15,0.00
2014-9-15,85,63,42,52,39,32,72,45,22,29.91,29.71,17,1,18,0.00
2014-9-16,86,66,46,51,41,36,72,44,18,29.81,29.65,21,1,22,0.00
2014-9-17,83,66,52,52,44,38,75,49,21,29.73,29.50,24,1,24,0.00
2014-9-18,70,62,54,56,51,41,87,67,44,29.89,29.59,21,2,21,0.00
2014-9-19,77,61,45,55,49,42,93,67,38,30.03,29.89,16,1,16,0.00
2014-9-20,83,64,44,56,48,40,88,59,33,30.02,29.81,15,1,17,0.00
2014-9-21,88,66,45,58,49,41,92,57,30,29.90,29.71,16,1,16,0.00
2014-9-22,82,66,55,56,51,46,86,60,31,29.85,29.72,19,1,26,0.00
2014-9-23,76,65,54,57,52,42,90,65,35,29.81,29.65,19,2,19,0.00
2014-9-24,69,59,53,53,49,42,93,73,39,29.84,29.66,14,2,20,0.17
2014-9-25,64,55,46,51,48,42,94,78,49,29.90,29.77,12,2,21,0.13
2014-9-26,65,52,37,49,42,36,98,72,44,30.02,29.90,12,1,12,0.00
2014-9-27,62,53,40,50,44,37,92,74,55,30.01,29.91,16,3,20,0.00
2014-9-28,69,58,50,51,47,44,82,68,49,29.92,29.82,16,3,18,0.00
2014-9-29,69,54,39,50,44,36,93,73,39,29.93,29.81,28,2,28,0.00
2014-9-30,60,50,36,44,40,33,91,69,47,30.11,29.93,26,4,28,0.00
2014-10-1,66,49,33,43,36,29,91,64,29,30.18,30.07,7,0,7,0.00
2014-10-2,69,48,32,41,33,27,85,59,29,30.27,30.13,19,1,19,0.00
2014-10-3,79,54,34,48,37,28,83,55,24,30.32,30.14,9,0,10,0.00
2014-10-4,82,58,37,48,38,32,84,51,21,30.23,30.04,16,0,16,0.00
2014-10-5,85,61,40,49,40,28,77,50,14,30.11,29.93,10,0,10,0.00
2014-10-6,84,62,42,55,43,37,85,55,25,30.00,29.83,9,0,11,0.00
2014-10-7,83,60,40,51,41,34,83,54,22,29.92,29.76,13,0,13,0.00
2014-10-8,75,57,40,49,38,32,84,53,27,29.94,29.81,13,1,17,0.00
2014-10-9,73,53,34,45,36,29,83,55,29,30.02,29.91,16,1,16,0.00
2014-10-10,76,55,35,45,38,29,81,55,27,30.07,29.96,15,1,15,0.00
2014-10-11,65,53,45,52,42,36,79,65,43,30.16,29.97,27,2,27,0.00
2014-10-12,64,48,34,43,34,26,92,63,30,30.27,30.08,10,0,10,0.00
2014-10-13,77,53,34,51,34,25,76,51,21,30.08,29.72,11,0,11,0.00
2014-10-14,61,54,48,45,40,27,89,59,31,29.80,29.49,23,3,23,0.00
2014-10-15,57,49,45,45,40,36,92,71,48,30.01,29.48,30,3,30,0.22
2014-10-16,65,50,40,42,37,34,88,64,33,30.02,29.83,18,1,18,0.00
2014-10-17,65,51,42,51,43,34,92,76,43,29.91,29.78,14,1,14,0.03
2014-10-18,71,56,44,52,46,40,94,73,41,29.98,29.82,9,2,11,0.02
2014-10-19,75,54,37,48,41,34,91,66,33,29.83,29.65,18,2,18,0.00
2014-10-20,64,51,42,49,43,38,93,75,50,29.84,29.64,23,3,23,0.15
2014-10-21,58,44,32,44,38,31,95,79,53,30.02,29.83,16,1,16,0.01
2014-10-22,61,54,45,46,42,38,78,64,50,29.93,29.71,24,6,24,0.02
2014-10-23,58,51,43,50,44,39,92,78,63,29.95,29.70,26,3,26,0.09
2014-10-24,58,47,43,49,44,39,95,88,73,30.00,29.77,10,2,12,0.07
2014-10-25,66,51,40,50,41,37,100,72,40,29.87,29.47,43,9,49,0.00
2014-10-26,50,43,34,38,35,31,92,75,54,30.14,29.87,19,2,27,0.00
2014-10-27,55,42,29,39,33,27,93,74,44,30.18,30.05,17,2,19,0.00
2014-10-28,58,48,35,48,40,30,86,74,51,30.07,29.93,20,3,20,0.00
2014-10-29,59,48,34,48,42,32,95,81,58,30.14,30.03,11,1,11,0.00
2014-10-30,65,53,46,54,48,44,94,84,59,30.03,29.69,9,1,16,0.08
2014-10-31,50,47,44,47,42,38,95,85,70,29.77,29.64,21,2,21,0.10
2014-11-1,49,42,32,39,35,28,87,75,56,30.01,29.68,29,5,29,0.01
2014-11-2,52,39,26,40,34,24,93,82,60,30.22,30.01,16,0,16,0.02
2014-11-3,54,46,38,45,41,37,95,82,69,30.23,30.13,10,2,10,0.00
2014-11-4,57,51,45,49,45,41,93,81,71,30.26,30.10,14,3,14,0.05
2014-11-5,68,54,40,52,46,38,96,75,48,30.28,30.02,16,3,16,0.00
2014-11-6,67,55,46,47,43,38,80,65,42,30.20,29.91,38,5,38,0.00
2014-11-7,57,43,31,40,35,28,90,75,38,30.36,30.21,8,0,9,0.00
2014-11-8,66,44,27,48,37,25,94,77,45,30.34,30.08,9,0,9,0.00
2014-11-9,61,46,36,49,38,29,91,76,53,30.08,29.78,40,5,40,0.00
2014-11-10,48,36,27,35,28,22,91,74,49,30.12,29.95,13,1,13,0.00
2014-11-11,40,26,15,27,18,7,90,72,44,30.39,30.10,23,3,23,0.00
2014-11-12,30,19,9,14,9,4,83,66,48,30.44,30.23,9,0,9,0.00
2014-11-13,24,19,17,20,16,10,91,88,63,30.24,30.05,9,0,13,0.01
2014-11-14,24,19,14,21,17,11,92,90,88,30.37,30.06,7,0,8,0.00
2014-11-15,16,9,-6,13,6,-9,90,87,83,30.79,30.37,13,1,13,0.00
2014-11-16,23,4,-11,18,1,-15,90,85,80,30.81,30.70,0,0,0,0.05
2014-11-17,22,5,-8,18,2,-12,91,85,78,30.75,30.54,0,0,0,0.03
2014-11-18,31,15,-2,26,12,-5,91,86,77,30.55,30.33,5,0,5,0.03
2014-11-19,31,23,17,25,19,14,89,84,75,30.33,30.05,6,0,6,0.06
2014-11-20,40,32,24,36,29,21,92,88,81,30.13,30.01,6,0,6,0.25
2014-11-21,48,38,29,42,34,27,95,86,72,30.03,29.56,25,4,25,0.39
2014-11-22,44,38,28,41,34,25,93,86,71,30.23,29.63,33,3,33,0.06
2014-11-23,45,34,21,35,28,20,100,80,57,30.35,30.23,26,2,30,0.01
2014-11-24,45,37,28,37,32,25,92,83,69,30.45,30.28,6,0,7,0.00
2014-11-25,58,49,36,46,42,32,91,77,62,30.33,30.25,30,4,30,0.00
2014-11-26,55,40,31,45,36,29,100,86,61,30.29,30.07,9,0,9,0.00
2014-11-27,57,51,40,44,39,33,86,65,44,30.08,29.81,35,6,35,0.02
2014-11-28,54,48,43,42,39,36,92,72,59,29.81,29.43,35,8,35,0.09
2014-11-29,43,38,31,39,29,22,92,72,54,29.84,29.46,38,7,38,0.06
2014-11-30,30,22,15,23,18,13,92,84,73,30.25,30.05,14,1,14,0.00
2014-12-1,36,28,18,34,26,15,95,91,84,30.25,30.16,7,0,7,0.14
2014-12-2,34,26,21,33,25,19,95,94,93,30.16,30.02,14,3,14,0.03
2014-12-3,27,24,21,25,22,19,93,91,87,30.06,29.93,10,1,10,0.00
2014-12-4,38,32,27,37,30,25,95,93,91,30.05,29.93,6,0,8,0.27
2014-12-5,44,31,26,43,30,25,97,96,94,30.12,29.96,10,0,10,0.01
2014-12-6,50,37,28,40,32,27,96,85,60,30.28,29.96,17,2,17,0.05
2014-12-7,51,35,26,41,32,25,94,89,67,30.28,30.15,14,0,14,0.00
2014-12-8,54,42,27,46,36,26,97,83,68,30.20,30.05,17,3,19,0.00
2014-12-9,67,52,49,46,43,42,85,71,43,30.05,29.83,17,6,21,0.04
2014-12-10,59,53,42,44,39,34,78,61,40,29.83,29.42,33,10,33,0.01
2014-12-11,58,50,40,43,39,34,84,67,47,29.56,29.14,45,11,45,0.02
2014-12-12,44,40,34,40,37,31,96,89,80,30.01,29.53,12,1,13,0.07
2014-12-13,46,33,23,35,28,21,96,84,55,30.24,30.02,4,1,6,0.00
2014-12-14,44,32,20,31,26,18,96,78,55,30.24,30.08,15,4,15,0.00
2014-12-15,35,31,26,32,29,25,96,94,88,30.13,29.92,7,1,9,0.02
2014-12-16,43,32,29,38,31,28,97,95,83,29.94,29.86,8,1,8,0.05
2014-12-17,44,34,29,40,32,29,98,95,83,30.01,29.85,7,1,7,0.01
2014-12-18,49,39,27,41,34,26,98,84,68,30.05,29.88,17,4,17,0.00
2014-12-19,48,42,37,39,36,33,92,81,66,29.98,29.86,15,3,17,0.00
2014-12-20,50,44,41,46,40,36,92,86,78,29.92,29.72,14,5,14,0.56
2014-12-21,50,46,41,47,43,40,96,91,86,30.09,29.76,18,2,18,0.29
2014-12-22,51,43,33,42,38,28,96,83,63,30.34,30.07,12,3,18,0.00
2014-12-23,55,41,31,44,36,27,96,82,60,30.34,30.02,9,2,9,0.00
2014-12-24,44,33,25,39,31,23,97,91,73,30.02,29.67,28,5,28,0.13
2014-12-25,40,34,28,34,30,26,93,84,64,30.24,30.01,16,4,19,0.00
2014-12-26,42,31,23,33,27,21,96,85,58,30.38,30.22,10,2,10,0.00
2014-12-27,36,30,22,32,27,20,95,90,82,30.38,30.17,11,1,11,0.00
2014-12-28,43,35,30,32,29,25,91,80,58,30.23,30.11,22,4,22,0.00
2014-12-29,32,26,15,30,22,10,96,85,68,30.63,30.10,23,5,23,0.01
2014-12-30,19,11,0,10,4,-4,88,76,64,30.90,30.63,19,5,19,0.00
2014-12-31,24,7,-4,13,2,-8,90,80,58,30.89,30.62,8,1,8,0.00
2015-1-1,30,13,2,18,8,0,90,80,52,30.62,30.42,7,1,7,0.00
2015-1-2,42,23,9,30,18,6,94,83,56,30.43,30.18,8,1,8,0.03